Time;durP1;ratioP1;P1;durP2;ratioP2;P2;SDS_P1;SDS_P2;PMS_P1;PMS_P2;Temp;Humidity;BMP_temperature;BMP_pressure;BME280_temperature;BME280_humidity;BME280_pressure;Samples;Min_cycle;Max_cycle;Signal;HPM_P1;HPM_P2
2020/12/28 00:01:19;;;;;;;7.00;6.22;;;;;;;1.50;62.97;97237.03;10424764;28;20413;-65
2020/12/28 00:06:20;;;;;;;5.72;5.20;;;;;;;1.63;62.75;97219.28;10424565;28;20041;-66
2020/12/28 00:11:21;;;;;;;5.57;5.07;;;;;;;1.57;63.12;97211.78;10406198;28;20045;-67
2020/12/28 00:16:22;;;;;;;5.38;4.88;;;;;;;1.73;63.12;97198.13;10424490;28;20041;-69
2020/12/28 00:21:23;;;;;;;5.03;4.63;;;;;;;1.60;63.59;97178.84;10424076;28;20073;-67
2020/12/28 00:26:25;;;;;;;5.78;5.18;;;;;;;1.82;62.90;97183.97;10425973;28;20045;-66
2020/12/28 00:31:26;;;;;;;5.95;5.22;;;;;;;1.83;63.08;97175.28;10424948;28;20458;-67
2020/12/28 00:36:28;;;;;;;4.82;4.35;;;;;;;2.01;62.68;97171.06;10405149;28;20444;-67
2020/12/28 00:41:30;;;;;;;5.25;4.72;;;;;;;1.92;63.26;97155.91;10422339;28;20111;-65
2020/12/28 00:46:31;;;;;;;5.22;4.82;;;;;;;2.03;62.83;97151.09;10422162;28;20050;-65
2020/12/28 00:51:33;;;;;;;5.15;4.65;;;;;;;1.98;63.13;97151.28;10421857;28;20041;-65
2020/12/28 00:56:36;;;;;;;6.20;5.60;;;;;;;1.95;63.23;97128.13;10423185;28;20049;-65
2020/12/28 01:01:38;;;;;;;5.00;4.43;;;;;;;2.02;63.04;97129.53;10421685;28;20033;-66
2020/12/28 01:06:43;;;;;;;5.38;4.88;;;;;;;2.06;63.02;97134.59;10403905;28;20049;-66
2020/12/28 01:12:19;;;;;;;5.40;4.90;;;;;;;2.13;62.80;97131.66;10405112;28;20041;-66
2020/12/28 01:17:24;;;;;;;4.60;4.20;;;;;;;2.13;62.92;97102.31;10404664;28;20111;-66
2020/12/28 01:22:43;;;;;;;5.22;4.78;;;;;;;2.12;62.98;97091.09;10403553;28;20152;-66
2020/12/28 01:27:44;;;;;;;5.07;4.68;;;;;;;2.10;63.02;97092.91;10420868;28;20108;-65
2020/12/28 01:32:46;;;;;;;5.53;5.03;;;;;;;2.07;63.20;97092.22;10402265;28;20046;-65
2020/12/28 01:38:06;;;;;;;4.70;4.20;;;;;;;2.24;62.84;97093.13;10405259;28;20080;-66
2020/12/28 01:43:07;;;;;;;5.53;5.03;;;;;;;2.27;62.81;97089.56;10403552;28;20498;-66
2020/12/28 01:48:08;;;;;;;5.55;5.05;;;;;;;2.24;62.79;97085.34;10401618;28;20045;-66
2020/12/28 01:53:11;;;;;;;5.38;4.90;;;;;;;2.27;62.81;97068.84;10403690;28;20193;-66
2020/12/28 01:58:14;;;;;;;5.13;4.63;;;;;;;2.29;62.73;97061.81;10401062;28;20045;-69
2020/12/28 02:03:16;;;;;;;5.20;4.70;;;;;;;2.36;63.04;97050.25;10403468;28;20045;-69
2020/12/28 02:08:31;;;;;;;5.45;4.88;;;;;;;2.37;62.43;97038.16;10401100;28;20045;-69
2020/12/28 02:13:34;;;;;;;6.03;5.38;;;;;;;2.37;62.59;97041.56;10401455;28;20069;-69
2020/12/28 02:18:53;;;;;;;5.55;5.05;;;;;;;2.33;62.90;97046.97;10419161;28;20053;-68
2020/12/28 02:24:01;;;;;;;6.18;5.63;;;;;;;2.47;62.21;97045.41;10402988;28;20088;-69
2020/12/28 02:29:06;;;;;;;5.78;5.28;;;;;;;2.36;62.53;97039.91;10401024;28;20513;-69
2020/12/28 02:34:08;;;;;;;6.43;5.82;;;;;;;2.41;62.79;97037.09;10400942;28;20132;-68
2020/12/28 02:39:18;;;;;;;5.95;5.45;;;;;;;2.20;63.11;97024.22;10401858;28;20053;-69
2020/12/28 02:44:20;;;;;;;5.47;5.03;;;;;;;2.26;63.01;97023.94;10403160;28;20053;-69
2020/12/28 02:49:39;;;;;;;5.88;5.38;;;;;;;2.21;63.23;97005.19;10418146;28;20053;-68
2020/12/28 02:54:59;;;;;;;6.10;5.60;;;;;;;2.12;63.41;96986.59;10417892;28;20053;-68
2020/12/28 03:00:18;;;;;;;6.07;5.57;;;;;;;2.23;63.17;97018.06;10423641;28;20057;-71
2020/12/28 03:05:54;;;;;;;6.40;5.70;;;;;;;2.24;63.22;97049.06;10354369;28;20555;-69
2020/12/28 03:11:14;;;;;;;6.95;6.35;;;;;;;2.23;63.16;97005.09;10426162;28;20053;-69
2020/12/28 03:16:37;;;;;;;6.20;5.70;;;;;;;2.16;63.42;97027.84;10426933;28;20045;-68
2020/12/28 03:22:17;;;;;;;6.50;5.85;;;;;;;2.20;63.39;97003.47;10299807;28;20081;-68
2020/12/28 03:27:37;;;;;;;6.57;5.97;;;;;;;2.24;63.28;97004.19;10299915;28;20059;-69
2020/12/28 03:32:56;;;;;;;6.57;5.97;;;;;;;2.27;63.09;97004.03;10300354;28;20051;-69
2020/12/28 03:38:16;;;;;;;6.65;6.15;;;;;;;2.17;63.58;96995.88;10299351;28;20058;-70
2020/12/28 03:43:36;;;;;;;6.18;5.65;;;;;;;2.14;63.72;96989.97;10298884;28;20046;-68
2020/12/28 03:48:56;;;;;;;6.72;6.13;;;;;;;1.96;64.08;96989.09;10299720;28;20048;-69
2020/12/28 03:54:16;;;;;;;7.40;6.80;;;;;;;1.84;64.57;96981.88;10423734;28;20498;-67
2020/12/28 03:59:43;;;;;;;5.25;4.82;;;;;;;1.97;64.20;96973.47;10406192;28;20075;-69
2020/12/28 04:05:03;;;;;;;6.28;5.75;;;;;;;2.01;64.05;96967.22;10422155;28;20491;-69
2020/12/28 04:10:34;;;;;;;5.50;5.10;;;;;;;1.81;64.58;96974.22;10414504;28;20056;-68
2020/12/28 04:15:47;;;;;;;6.68;6.07;;;;;;;1.75;64.98;96957.22;10405758;28;20132;-69
2020/12/28 04:20:49;;;;;;;7.13;6.43;;;;;;;2.00;64.41;96952.59;10423117;28;20052;-67
2020/12/28 04:25:51;;;;;;;6.82;6.22;;;;;;;2.13;63.64;96947.69;10421888;28;20053;-68
2020/12/28 04:30:52;;;;;;;6.80;6.20;;;;;;;1.98;63.86;96943.22;10421451;28;20049;-68
2020/12/28 04:35:53;;;;;;;6.40;5.90;;;;;;;1.98;63.73;96943.22;10421245;28;20399;-68
2020/12/28 04:40:55;;;;;;;7.05;6.43;;;;;;;2.12;63.23;96935.63;10421399;28;20045;-68
2020/12/28 04:46:01;;;;;;;6.65;6.05;;;;;;;2.03;63.65;96926.53;10422806;28;20092;-68
2020/12/28 04:51:03;;;;;;;7.10;6.47;;;;;;;2.00;63.60;96921.50;10421428;28;20099;-69
2020/12/28 04:56:04;;;;;;;6.57;6.00;;;;;;;2.15;62.95;96924.28;10420000;28;20069;-68
2020/12/28 05:01:05;;;;;;;7.32;6.63;;;;;;;2.16;63.05;96952.69;10420246;28;20045;-68
2020/12/28 05:06:07;;;;;;;6.63;6.03;;;;;;;2.11;63.08;96941.72;10420198;28;20120;-69
2020/12/28 05:11:11;;;;;;;7.45;6.75;;;;;;;2.39;62.51;96956.81;10420511;28;20080;-68
2020/12/28 05:16:12;;;;;;;6.93;6.32;;;;;;;2.40;62.47;96961.06;10402936;28;20038;-68
2020/12/28 05:21:23;;;;;;;7.10;6.43;;;;;;;2.34;62.70;96957.94;10418928;28;20056;-68
2020/12/28 05:26:26;;;;;;;8.10;7.30;;;;;;;2.37;62.93;96961.22;10418866;28;20069;-68
2020/12/28 05:31:32;;;;;;;8.30;7.60;;;;;;;2.26;63.23;96950.53;10417906;28;20079;-68
2020/12/28 05:36:34;;;;;;;8.43;7.72;;;;;;;2.40;63.01;96942.09;10418144;28;20063;-68
2020/12/28 05:41:35;;;;;;;7.25;6.65;;;;;;;2.38;63.19;96934.38;10418107;28;20049;-67
2020/12/28 05:46:37;;;;;;;7.18;6.57;;;;;;;2.30;63.40;96926.13;10417982;28;20037;-68
2020/12/28 05:51:38;;;;;;;7.85;7.15;;;;;;;2.26;63.76;96935.00;10401005;28;20110;-68
2020/12/28 05:56:41;;;;;;;7.35;6.70;;;;;;;2.16;64.09;96942.34;10419049;28;20045;-68
2020/12/28 06:01:44;;;;;;;6.18;5.68;;;;;;;2.13;64.01;96950.28;10417613;28;20042;-68
2020/12/28 06:06:46;;;;;;;6.68;6.10;;;;;;;2.14;64.15;96941.59;10418720;28;20046;-68
2020/12/28 06:11:47;;;;;;;5.70;5.20;;;;;;;2.18;64.16;96929.31;10417159;28;20076;-67
2020/12/28 06:16:48;;;;;;;6.40;5.80;;;;;;;2.05;64.10;96930.81;10419285;28;20571;-68
2020/12/28 06:21:53;;;;;;;6.75;6.15;;;;;;;2.05;64.21;96923.88;10417694;28;20522;-68
2020/12/28 06:27:13;;;;;;;6.75;6.15;;;;;;;1.90;64.89;96919.41;10417477;28;20080;-68
2020/12/28 06:32:16;;;;;;;6.28;5.68;;;;;;;2.01;64.56;96923.19;10401243;28;20107;-68
2020/12/28 06:37:25;;;;;;;6.68;5.95;;;;;;;1.97;64.69;96910.44;10421827;28;20458;-68
2020/12/28 06:42:27;;;;;;;5.70;5.20;;;;;;;2.03;64.26;96915.34;10418295;28;20045;-68
2020/12/28 06:47:31;;;;;;;6.25;5.65;;;;;;;2.05;64.36;96921.28;10416560;28;20049;-68
2020/12/28 06:52:32;;;;;;;6.20;5.15;;;;;;;2.07;64.20;96929.81;10417064;28;20045;-68
2020/12/28 06:57:34;;;;;;;6.50;5.93;;;;;;;2.12;64.21;96933.03;10416018;28;20073;-69
2020/12/28 07:02:35;;;;;;;5.82;5.32;;;;;;;2.03;64.49;96949.84;10416704;28;20080;-68
2020/12/28 07:07:42;;;;;;;5.20;4.70;;;;;;;2.02;64.37;96955.94;10416574;28;20065;-68
2020/12/28 07:12:44;;;;;;;5.75;5.20;;;;;;;1.95;64.77;96961.50;10381974;28;20092;-67
2020/12/28 07:17:45;;;;;;;5.60;5.10;;;;;;;2.00;64.49;96970.72;10416318;28;20042;-68
2020/12/28 07:22:47;;;;;;;5.30;4.82;;;;;;;2.03;64.47;96975.75;10417355;28;20069;-68
2020/12/28 07:27:48;;;;;;;5.20;4.70;;;;;;;2.03;64.70;96970.56;10415712;28;20049;-68
2020/12/28 07:32:56;;;;;;;5.78;5.28;;;;;;;2.02;64.47;96976.66;10416387;28;20038;-67
2020/12/28 07:38:04;;;;;;;4.75;4.35;;;;;;;2.06;64.17;96969.59;10415514;28;20041;-68
2020/12/28 07:43:08;;;;;;;5.45;5.05;;;;;;;2.05;64.22;96972.28;10416064;28;20042;-67
2020/12/28 07:48:16;;;;;;;5.15;4.65;;;;;;;1.98;64.59;96975.13;10403431;28;20041;-67
2020/12/28 07:53:23;;;;;;;5.65;5.13;;;;;;;2.06;63.92;96979.13;10422409;28;20479;-68
2020/12/28 07:58:46;;;;;;;6.07;5.57;;;;;;;2.04;64.06;96979.22;10505189;22;20054;-66
2020/12/28 08:03:51;;;;;;;5.63;5.13;;;;;;;2.04;64.20;96974.03;10501217;28;20048;-67
2020/12/28 08:08:59;;;;;;;5.93;5.40;;;;;;;1.99;64.33;96986.31;10503309;28;20123;-66
2020/12/28 08:14:09;;;;;;;5.93;5.43;;;;;;;2.06;63.98;96990.31;10501261;28;20040;-66
2020/12/28 08:19:10;;;;;;;5.97;5.38;;;;;;;2.09;64.16;96986.78;10502763;28;20044;-66
2020/12/28 08:24:19;;;;;;;5.05;4.65;;;;;;;2.12;64.20;96992.63;10502480;28;20025;-66
2020/12/28 08:29:20;;;;;;;5.50;5.05;;;;;;;2.05;64.07;97000.78;10500794;28;20517;-67
2020/12/28 08:34:28;;;;;;;6.93;6.43;;;;;;;2.18;63.69;96991.53;10502443;28;20083;-66
2020/12/28 08:39:29;;;;;;;6.32;5.80;;;;;;;1.96;64.91;96992.50;10508189;28;20558;-66
2020/12/28 08:44:33;;;;;;;5.72;5.30;;;;;;;2.30;63.29;97000.44;10539855;28;20044;-66
2020/12/28 08:49:35;;;;;;;6.35;5.75;;;;;;;2.30;63.53;96997.84;10523918;28;20079;-66
2020/12/28 08:54:37;;;;;;;5.93;5.38;;;;;;;2.38;63.26;96985.38;10542700;28;20105;-66
2020/12/28 08:59:38;;;;;;;5.85;5.35;;;;;;;2.44;63.18;96982.50;10543023;28;20063;-66
2020/12/28 09:04:39;;;;;;;6.10;5.57;;;;;;;2.47;63.07;96992.72;10542586;28;20040;-66
2020/12/28 09:09:42;;;;;;;5.65;5.13;;;;;;;2.39;63.45;96998.28;10542985;28;20055;-66
2020/12/28 09:14:43;;;;;;;6.18;5.60;;;;;;;2.46;63.18;97001.41;10542671;28;20044;-66
2020/12/28 09:19:49;;;;;;;6.22;5.15;;;;;;;2.48;63.05;97009.97;10541903;28;20102;-66
2020/12/28 09:24:50;;;;;;;6.13;5.63;;;;;;;2.62;62.31;97004.13;10542120;28;20546;-66
2020/12/28 09:29:51;;;;;;;6.70;5.50;;;;;;;2.43;62.69;96998.97;10542975;28;20126;-66
2020/12/28 09:34:53;;;;;;;7.25;6.65;;;;;;;2.43;62.95;96970.44;10541996;28;20063;-66
2020/12/28 09:39:54;;;;;;;6.65;6.05;;;;;;;2.47;62.72;96964.19;10540839;28;20177;-66
2020/12/28 09:44:55;;;;;;;6.10;5.50;;;;;;;2.62;62.43;96957.44;10540652;28;20079;-67
2020/12/28 09:49:56;;;;;;;6.75;6.15;;;;;;;2.91;61.56;96962.00;10541529;28;20123;-66
2020/12/28 09:54:57;;;;;;;6.65;6.05;;;;;;;2.77;61.98;96951.50;10540415;28;20055;-67
2020/12/28 09:59:58;;;;;;;6.93;6.30;;;;;;;2.86;61.68;96945.84;10540821;28;20105;-67
2020/12/28 10:05:00;;;;;;;7.00;6.40;;;;;;;2.64;62.20;96937.44;10540331;28;20036;-66
2020/12/28 10:10:04;;;;;;;6.53;5.82;;;;;;;2.86;61.58;96940.66;10539575;28;20466;-66
2020/12/28 10:15:06;;;;;;;7.22;6.57;;;;;;;2.94;61.28;96935.91;10539995;28;20101;-67
2020/12/28 10:20:07;;;;;;;6.72;6.13;;;;;;;3.22;60.38;96932.75;10539593;28;20485;-67
2020/12/28 10:25:28;;;;;;;6.63;6.03;;;;;;;3.10;60.51;96915.22;10539886;28;20440;-67
2020/12/28 10:30:29;;;;;;;7.00;6.30;;;;;;;2.96;60.94;96910.72;10539375;28;20040;-66
2020/12/28 10:35:31;;;;;;;10.13;6.60;;;;;;;3.00;61.20;96914.00;10539916;28;20043;-67
2020/12/28 10:40:32;;;;;;;7.50;6.80;;;;;;;2.82;61.64;96915.78;10539429;28;20044;-67
2020/12/28 10:45:41;;;;;;;7.53;6.82;;;;;;;2.96;61.17;96915.91;10539821;28;20037;-67
2020/12/28 10:50:43;;;;;;;7.32;6.63;;;;;;;2.90;61.28;96916.22;10539100;28;20048;-67
2020/12/28 10:55:45;;;;;;;6.65;6.15;;;;;;;2.86;61.07;96917.31;10539604;28;20070;-66
2020/12/28 11:00:51;;;;;;;7.35;6.75;;;;;;;2.77;61.62;96907.41;10538402;28;20059;-66
2020/12/28 11:05:52;;;;;;;7.60;7.00;;;;;;;2.83;61.40;96899.28;10539217;28;20044;-66
2020/12/28 11:10:53;;;;;;;8.32;7.55;;;;;;;2.89;61.26;96899.00;10538680;28;20497;-67
2020/12/28 11:15:54;;;;;;;7.63;6.93;;;;;;;2.80;61.90;96904.66;10539054;28;20127;-66
2020/12/28 11:20:56;;;;;;;8.63;7.82;;;;;;;3.02;61.60;96909.59;10540974;28;20557;-67
2020/12/28 11:25:57;;;;;;;8.30;7.50;;;;;;;3.11;60.77;96909.13;10546701;28;20454;-66
2020/12/28 11:30:58;;;;;;;6.90;6.30;;;;;;;3.16;60.53;96911.47;10546658;28;20067;-66
2020/12/28 11:35:59;;;;;;;7.90;7.20;;;;;;;3.06;60.81;96910.28;10545483;28;20050;-66
2020/12/28 11:41:00;;;;;;;7.38;6.75;;;;;;;2.93;61.18;96907.47;10545620;28;20066;-66
2020/12/28 11:46:04;;;;;;;8.30;7.60;;;;;;;2.93;61.48;96902.28;10545227;28;20060;-65
2020/12/28 11:51:07;;;;;;;8.68;7.88;;;;;;;2.90;61.52;96905.84;10545073;28;20047;-65
2020/12/28 11:56:13;;;;;;;8.57;7.72;;;;;;;3.07;60.86;96892.03;10544880;28;20074;-66
2020/12/28 12:01:17;;;;;;;9.57;8.57;;;;;;;2.77;61.73;96895.25;10545082;28;20052;-67
2020/12/28 12:06:25;;;;;;;9.82;8.93;;;;;;;2.95;61.59;96903.88;10545146;28;20458;-66
2020/12/28 12:11:28;;;;;;;9.45;8.60;;;;;;;2.94;61.30;96896.16;10544755;28;20044;-66
2020/12/28 12:16:29;;;;;;;8.73;8.02;;;;;;;3.04;61.10;96894.78;10544488;28;20032;-66
2020/12/28 12:21:31;;;;;;;8.70;7.88;;;;;;;2.98;61.06;96895.09;10544444;28;20426;-66
2020/12/28 12:26:35;;;;;;;9.23;8.27;;;;;;;2.89;61.26;96901.59;10544557;28;20048;-66
2020/12/28 12:31:36;;;;;;;9.40;8.60;;;;;;;2.84;61.52;96915.72;10544256;28;20089;-67
2020/12/28 12:36:37;;;;;;;8.95;8.07;;;;;;;2.79;61.55;96905.59;10544020;28;20055;-65
2020/12/28 12:41:38;;;;;;;11.70;8.95;;;;;;;2.87;61.27;96913.78;10543371;28;20063;-65
2020/12/28 12:46:39;;;;;;;9.52;8.63;;;;;;;2.78;61.30;96907.31;10543984;28;20040;-65
2020/12/28 12:51:41;;;;;;;10.30;9.43;;;;;;;2.72;61.84;96901.59;10542649;28;20044;-65
2020/12/28 12:56:42;;;;;;;9.68;8.88;;;;;;;2.56;62.47;96887.72;10542897;28;20044;-65
2020/12/28 13:01:43;;;;;;;10.32;9.32;;;;;;;2.75;61.60;96878.13;10543230;28;20417;-67
2020/12/28 13:06:48;;;;;;;10.52;9.48;;;;;;;2.71;62.08;96869.66;10541635;28;20067;-66
2020/12/28 13:11:50;;;;;;;9.48;8.77;;;;;;;2.74;61.97;96871.22;10543402;28;20066;-66
2020/12/28 13:16:52;;;;;;;11.93;9.63;;;;;;;2.65;62.33;96869.94;10541912;28;20056;-65
2020/12/28 13:21:53;;;;;;;9.85;9.05;;;;;;;2.79;62.18;96874.44;10541408;28;20108;-67
2020/12/28 13:26:54;;;;;;;10.63;9.68;;;;;;;2.64;63.01;96876.06;10541488;28;20562;-66
2020/12/28 13:31:56;;;;;;;10.52;9.40;;;;;;;2.69;63.40;96865.44;10542162;28;20105;-65
2020/12/28 13:36:57;;;;;;;10.77;9.80;;;;;;;2.58;63.27;96885.91;10540920;28;20105;-66
2020/12/28 13:42:02;;;;;;;11.88;10.77;;;;;;;2.37;64.33;96862.72;10540611;28;20058;-66
2020/12/28 13:47:03;;;;;;;14.43;10.05;;;;;;;2.56;64.10;96869.56;10540126;28;20127;-66
2020/12/28 13:52:04;;;;;;;11.45;10.45;;;;;;;2.67;63.74;96859.50;10540480;28;20113;-66
2020/12/28 13:57:06;;;;;;;10.68;9.70;;;;;;;2.59;62.90;96851.28;10536546;22;20045;-67
2020/12/28 14:02:07;;;;;;;11.15;10.20;;;;;;;2.65;63.13;96851.78;10546572;28;20394;-65
2020/12/28 14:07:09;;;;;;;11.32;10.23;;;;;;;2.66;62.38;96847.47;10545476;28;20493;-65
2020/12/28 14:12:10;;;;;;;10.82;9.93;;;;;;;2.37;62.90;96835.97;10546272;28;20531;-65
2020/12/28 14:17:11;;;;;;;12.43;11.27;;;;;;;2.56;62.54;96833.28;10546216;28;20085;-65
2020/12/28 14:22:12;;;;;;;13.63;12.43;;;;;;;2.55;62.54;96837.63;10545097;28;20105;-65
2020/12/28 14:27:13;;;;;;;13.10;12.00;;;;;;;2.28;63.38;96855.41;10528018;28;20047;-67
2020/12/28 14:32:15;;;;;;;12.48;11.48;;;;;;;2.23;63.54;96853.03;10541547;28;20051;-66
2020/12/28 14:37:16;;;;;;;10.85;9.95;;;;;;;2.20;63.45;96858.34;10542446;28;20055;-66
2020/12/28 14:42:17;;;;;;;12.07;10.95;;;;;;;2.15;64.01;96855.16;10541203;28;20040;-67
2020/12/28 14:47:18;;;;;;;12.63;11.35;;;;;;;2.00;64.29;96851.56;10541344;28;20044;-67
2020/12/28 14:52:20;;;;;;;15.77;10.93;;;;;;;2.29;63.65;96864.84;10522237;28;20105;-66
2020/12/28 14:57:21;;;;;;;12.02;11.02;;;;;;;2.21;63.64;96851.41;10548121;28;20044;-66
2020/12/28 15:02:23;;;;;;;11.52;10.52;;;;;;;2.43;63.17;96864.16;10548830;28;20046;-66
2020/12/28 15:07:24;;;;;;;12.23;11.13;;;;;;;2.34;63.24;96851.66;10548447;28;20040;-66
2020/12/28 15:12:26;;;;;;;11.77;10.77;;;;;;;2.11;63.82;96863.16;10530896;28;20052;-66
2020/12/28 15:17:27;;;;;;;11.02;10.10;;;;;;;2.33;63.38;96844.81;10548328;28;20028;-65
2020/12/28 15:22:30;;;;;;;13.05;11.93;;;;;;;2.41;63.61;96848.69;10551328;28;20551;-66
2020/12/28 15:27:31;;;;;;;11.77;10.88;;;;;;;2.22;63.80;96848.78;10549001;28;20070;-66
2020/12/28 15:32:32;;;;;;;12.45;11.32;;;;;;;2.27;63.90;96843.38;10532417;28;20051;-66
2020/12/28 15:37:33;;;;;;;11.27;10.27;;;;;;;2.40;63.54;96849.63;10548532;28;20044;-66
2020/12/28 15:42:34;;;;;;;11.63;10.52;;;;;;;2.42;63.51;96860.72;10549753;28;20051;-66
2020/12/28 15:47:36;;;;;;;13.73;12.60;;;;;;;2.19;64.12;96848.06;10548648;28;20032;-66
2020/12/28 15:52:37;;;;;;;13.27;12.13;;;;;;;2.21;63.74;96841.91;10529300;28;20082;-66
2020/12/28 15:57:38;;;;;;;12.13;11.02;;;;;;;2.21;64.17;96841.91;10546733;28;20035;-67
2020/12/28 16:02:39;;;;;;;14.68;13.43;;;;;;;2.38;62.79;96846.25;10531304;28;20044;-67
2020/12/28 16:07:40;;;;;;;13.88;12.77;;;;;;;2.17;63.28;96836.94;10546860;28;20040;-66
2020/12/28 16:12:42;;;;;;;13.23;12.07;;;;;;;2.28;62.52;96829.47;10546782;28;20126;-66
2020/12/28 16:17:46;;;;;;;12.65;11.45;;;;;;;2.24;62.66;96823.59;10528620;28;20036;-66
2020/12/28 16:22:47;;;;;;;13.25;12.05;;;;;;;2.41;62.21;96834.91;10544642;28;20048;-66
2020/12/28 16:27:49;;;;;;;13.75;12.55;;;;;;;2.40;61.95;96828.88;10528143;28;20080;-64
2020/12/28 16:32:50;;;;;;;13.80;12.70;;;;;;;2.28;62.10;96824.28;10545626;28;20051;-66
2020/12/28 16:37:52;;;;;;;14.30;12.90;;;;;;;2.20;62.24;96821.25;10543269;28;20040;-67
2020/12/28 16:42:54;;;;;;;14.88;13.45;;;;;;;2.10;62.35;96823.44;10546050;28;20040;-66
2020/12/28 16:47:55;;;;;;;14.50;13.20;;;;;;;2.36;61.71;96822.16;10546605;28;20138;-65
2020/12/28 16:52:57;;;;;;;14.88;13.40;;;;;;;2.24;62.06;96808.06;10545362;28;20497;-66
2020/12/28 16:57:59;;;;;;;14.98;13.68;;;;;;;2.19;61.80;96797.09;10545235;28;20075;-66
2020/12/28 17:03:00;;;;;;;14.95;13.55;;;;;;;2.43;61.17;96794.16;10528804;28;20048;-65
2020/12/28 17:08:01;;;;;;;14.45;13.15;;;;;;;2.24;61.90;96792.50;10529784;28;20047;-65
2020/12/28 17:13:03;;;;;;;14.32;13.05;;;;;;;2.34;62.54;96781.69;10547576;28;20335;-66
2020/12/28 17:18:04;;;;;;;14.88;13.57;;;;;;;2.30;62.61;96772.38;10545857;28;20047;-64
2020/12/28 17:23:05;;;;;;;15.20;13.80;;;;;;;2.23;62.71;96783.06;10544322;28;20043;-65
2020/12/28 17:28:06;;;;;;;14.40;13.02;;;;;;;2.12;62.73;96802.66;10545254;28;20409;-66
2020/12/28 17:33:09;;;;;;;15.27;13.88;;;;;;;2.25;62.25;96814.06;10525066;28;20113;-65
2020/12/28 17:38:10;;;;;;;14.25;12.98;;;;;;;2.20;62.06;96822.06;10542135;28;20145;-65
2020/12/28 17:43:17;;;;;;;14.25;13.05;;;;;;;2.37;61.65;96826.44;10536077;27;20821;-65
2020/12/28 17:48:19;;;;;;;15.27;13.93;;;;;;;2.28;62.53;96837.25;10533159;28;20060;-65
2020/12/28 17:53:21;;;;;;;16.90;14.27;;;;;;;2.24;62.20;96861.63;10538647;28;20105;-65
2020/12/28 17:58:22;;;;;;;14.95;13.60;;;;;;;2.24;61.74;96846.09;10533962;28;20071;-65
2020/12/28 18:03:23;;;;;;;14.65;13.38;;;;;;;2.38;61.94;96866.97;10534064;28;20466;-65
2020/12/28 18:08:25;;;;;;;15.70;14.20;;;;;;;2.40;61.76;96862.56;10533415;28;20056;-65
2020/12/28 18:13:43;;;;;;;14.63;13.18;;;;;;;2.27;61.25;96846.78;10535352;28;20040;-65
2020/12/28 18:18:45;;;;;;;15.80;14.40;;;;;;;2.13;62.09;96857.00;10536386;28;20037;-66
2020/12/28 18:23:46;;;;;;;16.05;14.45;;;;;;;2.38;61.76;96850.59;10532716;28;20489;-65
2020/12/28 18:28:48;;;;;;;15.65;14.13;;;;;;;2.43;61.43;96843.41;10531158;28;20131;-65
2020/12/28 18:33:49;;;;;;;14.70;13.25;;;;;;;2.37;61.89;96852.34;10533980;28;20063;-65
2020/12/28 18:38:51;;;;;;;16.15;13.45;;;;;;;2.26;61.50;96839.94;10532129;28;20044;-66
2020/12/28 18:43:52;;;;;;;14.18;12.93;;;;;;;2.28;62.32;96842.44;10535350;28;20040;-66
2020/12/28 18:48:53;;;;;;;14.38;13.18;;;;;;;2.26;61.81;96834.75;10536641;28;20090;-67
2020/12/28 18:53:55;;;;;;;15.07;13.70;;;;;;;2.45;61.56;96823.47;10512751;28;20454;-66
2020/12/28 18:58:56;;;;;;;15.10;13.80;;;;;;;2.31;62.59;96811.19;10505766;28;20040;-66
2020/12/28 19:03:58;;;;;;;14.95;13.55;;;;;;;2.44;61.73;96809.66;10507551;28;20094;-66
2020/12/28 19:09:03;;;;;;;13.75;12.60;;;;;;;2.36;62.41;96806.63;10505514;28;20044;-66
2020/12/28 19:14:04;;;;;;;15.57;14.23;;;;;;;2.42;62.35;96787.31;10504493;28;20448;-66
2020/12/28 19:19:05;;;;;;;14.00;12.80;;;;;;;2.41;62.32;96785.63;10505908;28;20032;-66
2020/12/28 19:24:07;;;;;;;15.32;13.93;;;;;;;2.43;62.33;96776.84;10505808;28;20127;-66
2020/12/28 19:29:08;;;;;;;13.70;12.50;;;;;;;2.29;62.90;96779.31;10511081;28;20094;-66
2020/12/28 19:34:11;;;;;;;13.00;11.88;;;;;;;2.37;62.72;96778.94;10506496;28;20056;-66
2020/12/28 19:39:12;;;;;;;13.73;12.50;;;;;;;2.37;62.70;96787.53;10504798;28;20486;-66
2020/12/28 19:44:15;;;;;;;13.98;12.75;;;;;;;2.51;62.25;96777.31;10506915;28;20096;-67
2020/12/28 19:49:17;;;;;;;15.15;13.85;;;;;;;2.41;62.70;96778.69;10504313;28;20539;-67
2020/12/28 19:54:21;;;;;;;14.02;12.82;;;;;;;2.30;63.18;96774.97;10507158;28;20045;-66
2020/12/28 19:59:32;;;;;;;14.57;13.35;;;;;;;2.24;63.16;96764.00;10515828;22;20040;-65
2020/12/28 20:04:33;;;;;;;13.57;11.88;;;;;;;1.92;64.26;96765.63;10500814;28;20045;-66
2020/12/28 20:09:35;;;;;;;15.05;13.70;;;;;;;2.20;63.52;96766.81;10500960;28;20045;-65
2020/12/28 20:14:36;;;;;;;14.20;12.90;;;;;;;2.30;63.36;96752.47;10483367;28;20056;-65
2020/12/28 20:19:38;;;;;;;13.75;12.55;;;;;;;2.12;63.76;96749.06;10501499;28;20464;-65
2020/12/28 20:24:39;;;;;;;13.57;12.48;;;;;;;2.20;63.79;96759.88;10500931;28;20084;-66
2020/12/28 20:29:40;;;;;;;14.20;12.90;;;;;;;2.21;63.65;96758.13;10501538;28;20051;-65
2020/12/28 20:34:41;;;;;;;13.13;11.93;;;;;;;2.24;63.52;96755.38;10482968;28;20500;-64
2020/12/28 20:39:43;;;;;;;13.57;12.30;;;;;;;2.28;63.90;96741.38;10501070;28;20111;-66
2020/12/28 20:44:44;;;;;;;13.52;12.32;;;;;;;2.21;64.10;96738.25;10500034;28;20051;-65
2020/12/28 20:49:45;;;;;;;15.20;13.80;;;;;;;2.71;62.44;96741.75;10500183;28;20461;-65
2020/12/28 20:54:47;;;;;;;14.77;13.48;;;;;;;2.50;63.30;96739.34;10500255;28;20047;-65
2020/12/28 20:59:48;;;;;;;14.68;13.38;;;;;;;2.63;62.53;96747.31;10500048;28;20159;-65
2020/12/28 21:04:49;;;;;;;15.70;14.25;;;;;;;2.68;62.84;96739.28;10499352;28;20052;-65
2020/12/28 21:09:51;;;;;;;16.70;15.00;;;;;;;2.72;62.84;96739.06;10499744;28;20045;-66
2020/12/28 21:14:54;;;;;;;15.30;13.90;;;;;;;2.44;64.05;96738.84;10480685;28;20568;-65
2020/12/28 21:19:55;;;;;;;16.30;14.70;;;;;;;2.58;64.03;96743.31;10498290;28;20040;-65
2020/12/28 21:24:57;;;;;;;16.05;14.50;;;;;;;2.50;64.60;96748.88;10499326;28;20044;-66
2020/12/28 21:29:58;;;;;;;16.52;14.98;;;;;;;2.27;65.34;96750.91;10499208;28;20045;-64
2020/12/28 21:34:59;;;;;;;15.73;14.18;;;;;;;2.13;66.46;96745.59;10498388;28;20044;-65
2020/12/28 21:40:02;;;;;;;15.63;14.23;;;;;;;2.27;66.84;96763.84;10498961;28;20033;-65
2020/12/28 21:45:04;;;;;;;15.60;14.10;;;;;;;2.17;67.76;96762.66;10480417;28;20424;-65
2020/12/28 21:50:08;;;;;;;16.20;14.80;;;;;;;2.10;67.79;96766.44;10497739;28;20067;-65
2020/12/28 21:55:09;;;;;;;15.05;13.70;;;;;;;2.11;68.76;96777.66;10480443;28;20498;-65
2020/12/28 22:00:10;;;;;;;16.30;14.80;;;;;;;1.80;70.02;96763.63;10497566;28;20068;-64
2020/12/28 22:05:14;;;;;;;15.82;14.43;;;;;;;1.77;70.64;96756.88;10497597;28;20063;-65
2020/12/28 22:10:15;;;;;;;17.15;15.52;;;;;;;2.18;69.88;96759.13;10496877;28;20563;-65
2020/12/28 22:15:17;;;;;;;17.83;16.25;;;;;;;2.17;69.98;96765.25;10479647;28;20378;-65
2020/12/28 22:20:18;;;;;;;18.50;16.63;;;;;;;1.87;71.39;96765.00;10497686;28;20044;-65
2020/12/28 22:25:20;;;;;;;15.95;14.60;;;;;;;1.81;71.44;96764.47;10497032;28;20041;-64
2020/12/28 22:30:21;;;;;;;18.45;16.65;;;;;;;1.75;72.23;96774.22;10504487;28;20064;-65
2020/12/28 22:35:22;;;;;;;18.10;16.40;;;;;;;1.97;71.79;96761.03;10505886;28;20045;-64
2020/12/28 22:40:24;;;;;;;17.45;15.77;;;;;;;1.90;71.78;96769.19;10502887;28;20044;-65
2020/12/28 22:45:25;;;;;;;18.52;16.92;;;;;;;1.88;71.85;96764.09;10504277;28;20367;-65
2020/12/28 22:50:26;;;;;;;17.58;15.77;;;;;;;1.85;71.92;96763.41;10504290;28;20121;-65
2020/12/28 22:55:28;;;;;;;18.60;17.02;;;;;;;1.98;71.99;96772.25;10504335;28;20045;-65
2020/12/28 23:00:31;;;;;;;18.58;17.00;;;;;;;1.80;72.25;96771.41;10504819;28;20075;-65
2020/12/28 23:05:32;;;;;;;18.17;16.45;;;;;;;2.01;72.39;96775.53;10505257;28;20048;-64
2020/12/28 23:10:33;;;;;;;17.70;16.17;;;;;;;2.05;72.05;96783.16;10505348;28;20044;-65
2020/12/28 23:15:35;;;;;;;17.50;16.00;;;;;;;1.86;72.40;96765.06;10503771;28;20048;-65
2020/12/28 23:20:40;;;;;;;19.92;17.75;;;;;;;1.77;73.02;96762.03;10504382;28;20072;-64
2020/12/28 23:25:41;;;;;;;17.10;15.50;;;;;;;1.83;72.54;96754.88;10503590;28;20044;-64
2020/12/28 23:30:42;;;;;;;15.90;14.57;;;;;;;1.73;72.48;96746.72;10503615;28;20474;-64
2020/12/28 23:35:44;;;;;;;19.65;15.55;;;;;;;1.90;72.67;96764.84;10503058;28;20052;-64